createdAt,value
2018-07-20T00:00:00.944Z,0
2018-07-20T00:00:26.505Z,0
2018-07-20T00:00:52.077Z,0
2018-07-20T00:01:17.672Z,0
2018-07-20T00:01:43.245Z,0
2018-07-20T00:02:08.859Z,0
2018-07-20T00:02:34.405Z,0
2018-07-20T00:02:59.989Z,0
2018-07-20T00:03:25.571Z,0
2018-07-20T00:03:51.170Z,0
2018-07-20T00:04:16.745Z,0
2018-07-20T00:04:42.316Z,0
2018-07-20T00:05:07.873Z,0
2018-07-20T00:05:33.461Z,0
2018-07-20T00:05:59.039Z,0
2018-07-20T00:06:24.591Z,0
2018-07-20T00:06:50.175Z,0
2018-07-20T00:07:15.747Z,0
2018-07-20T00:07:41.301Z,0
2018-07-20T00:08:06.936Z,0
2018-07-20T00:08:32.461Z,0
2018-07-20T00:08:58.026Z,0
2018-07-20T00:09:23.607Z,0
2018-07-20T00:09:49.184Z,0
2018-07-20T00:10:14.757Z,0
2018-07-20T00:10:40.344Z,0
2018-07-20T00:11:05.930Z,0
2018-07-20T00:11:31.498Z,0
2018-07-20T00:11:57.088Z,0
2018-07-20T00:12:22.664Z,0
2018-07-20T00:12:48.247Z,0
2018-07-20T00:13:13.808Z,0
2018-07-20T00:13:39.395Z,0
2018-07-20T00:14:04.968Z,0
2018-07-20T00:14:30.550Z,0
2018-07-20T00:14:56.131Z,0
2018-07-20T00:15:21.703Z,0
2018-07-20T00:15:47.270Z,0
2018-07-20T00:16:12.861Z,0
2018-07-20T00:16:38.486Z,0
2018-07-20T00:17:04.019Z,0
2018-07-20T00:17:29.567Z,0
2018-07-20T00:17:55.147Z,0
2018-07-20T00:18:20.709Z,0
2018-07-20T00:18:46.285Z,0
2018-07-20T00:19:11.857Z,0
2018-07-20T00:19:37.433Z,0
2018-07-20T00:20:03.001Z,0
2018-07-20T00:20:28.561Z,0
2018-07-20T00:20:54.146Z,0
2018-07-20T00:21:19.710Z,0
2018-07-20T00:21:45.287Z,0
2018-07-20T00:22:10.904Z,0
2018-07-20T00:22:36.429Z,0
2018-07-20T00:23:02.007Z,0
2018-07-20T00:23:27.583Z,0
2018-07-20T00:23:53.163Z,0
2018-07-20T00:24:18.731Z,0
2018-07-20T00:24:44.313Z,0
2018-07-20T00:25:09.881Z,0
2018-07-20T00:25:35.450Z,0
2018-07-20T00:26:01.021Z,0
2018-07-20T00:26:26.621Z,0
2018-07-20T00:26:52.175Z,0
2018-07-20T00:27:17.751Z,0
2018-07-20T00:27:43.331Z,0
2018-07-20T00:28:08.892Z,0
2018-07-20T00:28:34.467Z,0
2018-07-20T00:29:00.030Z,0
2018-07-20T00:29:25.605Z,0
2018-07-20T00:29:51.179Z,0
2018-07-20T00:30:16.760Z,0
2018-07-20T00:30:42.311Z,0
2018-07-20T00:31:07.904Z,0
2018-07-20T00:31:33.468Z,0
2018-07-20T00:31:59.044Z,0
2018-07-20T00:32:24.649Z,0
2018-07-20T00:32:50.247Z,0
2018-07-20T00:33:15.836Z,0
2018-07-20T00:33:41.412Z,0
2018-07-20T00:34:06.979Z,0
2018-07-20T00:34:32.557Z,0
2018-07-20T00:34:58.131Z,0
2018-07-20T00:35:23.704Z,0
2018-07-20T00:35:49.275Z,0
2018-07-20T00:36:14.861Z,0
2018-07-20T00:36:40.444Z,0
2018-07-20T00:37:06.050Z,0
2018-07-20T00:37:31.625Z,0
2018-07-20T00:37:57.196Z,0
2018-07-20T00:38:22.765Z,0
2018-07-20T00:38:48.346Z,0
2018-07-20T00:39:13.918Z,0
2018-07-20T00:39:39.491Z,0
2018-07-20T00:40:05.056Z,0
2018-07-20T00:40:30.626Z,0
2018-07-20T00:40:56.201Z,0
2018-07-20T00:41:21.763Z,0
2018-07-20T00:41:47.334Z,0
2018-07-20T00:42:12.896Z,0
2018-07-20T00:42:38.468Z,0
2018-07-20T00:43:04.049Z,0
2018-07-20T00:43:29.618Z,0
2018-07-20T00:43:55.192Z,0
2018-07-20T00:44:20.788Z,0
2018-07-20T00:44:46.382Z,0
2018-07-20T00:45:11.943Z,0
2018-07-20T00:45:37.510Z,0
2018-07-20T00:46:03.080Z,0
2018-07-20T00:46:28.665Z,0
2018-07-20T00:46:54.245Z,0
2018-07-20T00:47:19.817Z,0
2018-07-20T00:47:45.385Z,0
2018-07-20T00:48:10.947Z,0
2018-07-20T00:48:36.522Z,0
2018-07-20T00:49:02.104Z,0
2018-07-20T00:49:27.692Z,0
2018-07-20T00:49:53.249Z,0
2018-07-20T00:50:18.843Z,0
2018-07-20T00:50:44.392Z,0
2018-07-20T00:51:09.964Z,0
2018-07-20T00:51:35.531Z,0
2018-07-20T00:52:01.086Z,0
2018-07-20T00:52:26.659Z,0
2018-07-20T00:52:52.240Z,0
2018-07-20T00:53:17.819Z,0
2018-07-20T00:53:43.361Z,0
2018-07-20T00:54:08.937Z,0
2018-07-20T00:54:34.512Z,0
2018-07-20T00:55:00.080Z,0
2018-07-20T00:55:25.665Z,0
2018-07-20T00:55:51.251Z,0
2018-07-20T00:56:16.842Z,0
2018-07-20T00:56:42.418Z,0
2018-07-20T00:57:07.975Z,0
2018-07-20T00:57:33.556Z,0
2018-07-20T00:57:59.137Z,0
2018-07-20T00:58:24.731Z,0
2018-07-20T00:58:50.317Z,0
2018-07-20T00:59:15.885Z,0
2018-07-20T00:59:41.443Z,0
2018-07-20T01:00:07.032Z,0
2018-07-20T01:00:32.615Z,0
2018-07-20T01:00:58.184Z,0
2018-07-20T01:01:23.760Z,0
2018-07-20T01:01:49.356Z,0
2018-07-20T01:02:14.935Z,0
2018-07-20T01:02:40.512Z,0
2018-07-20T01:03:06.153Z,0
2018-07-20T01:03:31.741Z,0
2018-07-20T01:03:57.342Z,0
2018-07-20T01:04:22.917Z,0
2018-07-20T01:04:48.485Z,0
2018-07-20T01:05:14.054Z,0
2018-07-20T01:05:39.637Z,0
2018-07-20T01:06:05.218Z,0
2018-07-20T01:06:30.785Z,0
2018-07-20T01:06:56.359Z,0
2018-07-20T01:07:21.924Z,0
2018-07-20T01:07:47.523Z,0
2018-07-20T01:08:13.103Z,0
2018-07-20T01:08:38.676Z,0
2018-07-20T01:09:04.238Z,0
2018-07-20T01:09:29.803Z,0
2018-07-20T01:09:55.377Z,0
2018-07-20T01:10:20.960Z,0
2018-07-20T01:10:46.529Z,0
2018-07-20T01:11:12.104Z,0
2018-07-20T01:11:37.668Z,0
2018-07-20T01:12:03.255Z,0
2018-07-20T01:12:28.809Z,0
2018-07-20T01:12:54.371Z,0
2018-07-20T01:13:19.962Z,0
2018-07-20T01:13:45.525Z,0
2018-07-20T01:14:11.115Z,0
2018-07-20T01:14:36.689Z,0
2018-07-20T01:15:02.275Z,0
2018-07-20T01:15:27.847Z,0
2018-07-20T01:15:53.413Z,0
2018-07-20T01:16:18.999Z,0
2018-07-20T01:16:44.565Z,0
2018-07-20T01:17:10.132Z,0
2018-07-20T01:17:35.717Z,0
2018-07-20T01:18:01.291Z,0
2018-07-20T01:18:26.865Z,0
2018-07-20T01:18:52.427Z,0
2018-07-20T01:19:18.002Z,0
2018-07-20T01:19:43.567Z,0
2018-07-20T01:20:09.156Z,0
2018-07-20T01:20:34.734Z,0
2018-07-20T01:21:00.313Z,0
2018-07-20T01:21:25.861Z,0
2018-07-20T01:21:51.454Z,0
2018-07-20T01:22:17.031Z,0
2018-07-20T01:22:42.613Z,0
2018-07-20T01:23:08.192Z,0
2018-07-20T01:23:33.776Z,0
2018-07-20T01:23:59.341Z,0
2018-07-20T01:24:24.934Z,0
2018-07-20T01:24:50.497Z,0
2018-07-20T01:25:16.067Z,0
2018-07-20T01:25:41.643Z,0
2018-07-20T01:26:07.210Z,0
2018-07-20T01:26:32.781Z,0
2018-07-20T01:26:58.351Z,0
2018-07-20T01:27:23.943Z,0
2018-07-20T01:27:49.554Z,0
2018-07-20T01:28:15.135Z,0
2018-07-20T01:28:40.695Z,0
2018-07-20T01:29:06.267Z,0
2018-07-20T01:29:31.855Z,0
2018-07-20T01:29:57.436Z,0
2018-07-20T01:30:22.984Z,0
2018-07-20T01:30:48.549Z,0
2018-07-20T01:31:14.129Z,0
2018-07-20T01:31:39.689Z,0
2018-07-20T01:32:05.285Z,0
2018-07-20T01:32:30.849Z,0
2018-07-20T01:32:56.433Z,0
2018-07-20T01:33:22.003Z,0
2018-07-20T01:33:47.592Z,0
2018-07-20T01:34:13.151Z,0
2018-07-20T01:34:38.733Z,0
2018-07-20T01:35:04.304Z,0
2018-07-20T01:35:29.885Z,0
2018-07-20T01:35:55.457Z,0
2018-07-20T01:36:21.035Z,0
2018-07-20T01:36:46.627Z,0
2018-07-20T01:37:12.195Z,0
2018-07-20T01:37:37.779Z,0
2018-07-20T01:38:03.333Z,0
2018-07-20T01:38:28.913Z,0
2018-07-20T01:38:54.498Z,0
2018-07-20T01:39:20.079Z,0
2018-07-20T01:39:45.648Z,0
2018-07-20T01:40:11.239Z,0
2018-07-20T01:40:36.804Z,0
2018-07-20T01:41:02.519Z,0
2018-07-20T01:41:28.095Z,0
2018-07-20T01:41:53.665Z,0
2018-07-20T01:42:19.237Z,0
2018-07-20T01:42:44.819Z,0
2018-07-20T01:43:10.407Z,0
2018-07-20T01:43:35.998Z,0
2018-07-20T01:44:01.571Z,0
2018-07-20T01:44:27.136Z,0
2018-07-20T01:44:52.711Z,0
2018-07-20T01:45:18.297Z,0
2018-07-20T01:45:43.881Z,0
2018-07-20T01:46:09.443Z,0
2018-07-20T01:46:35.025Z,0
2018-07-20T01:47:00.601Z,0
2018-07-20T01:47:26.161Z,0
2018-07-20T01:47:51.734Z,0
2018-07-20T01:48:17.307Z,0
2018-07-20T01:48:42.894Z,0
2018-07-20T01:49:08.469Z,0
2018-07-20T01:49:34.039Z,0
2018-07-20T01:49:59.615Z,0
2018-07-20T01:50:25.175Z,0
2018-07-20T01:50:50.762Z,0
2018-07-20T01:51:16.321Z,0
2018-07-20T01:51:41.897Z,0
2018-07-20T01:52:07.475Z,0
2018-07-20T01:52:33.066Z,0
2018-07-20T01:52:58.631Z,0
2018-07-20T01:53:24.206Z,0
2018-07-20T01:53:49.798Z,0
2018-07-20T01:54:15.405Z,0
2018-07-20T01:54:40.983Z,0
2018-07-20T01:55:06.528Z,0
2018-07-20T01:55:32.112Z,0
2018-07-20T01:55:57.691Z,0
2018-07-20T01:56:23.274Z,0
2018-07-20T01:56:48.840Z,0
2018-07-20T01:57:14.421Z,0
2018-07-20T01:57:39.988Z,0
2018-07-20T01:58:05.560Z,0
2018-07-20T01:58:31.132Z,0
2018-07-20T01:58:56.710Z,0
2018-07-20T01:59:22.280Z,0
2018-07-20T01:59:47.847Z,0
2018-07-20T02:00:13.430Z,0
2018-07-20T02:00:38.981Z,0
2018-07-20T02:01:04.549Z,0
2018-07-20T02:01:30.137Z,0
2018-07-20T02:01:55.709Z,0
2018-07-20T02:02:21.299Z,0
2018-07-20T02:02:46.857Z,0
2018-07-20T02:03:12.428Z,0
2018-07-20T02:03:38.019Z,0
2018-07-20T02:04:03.583Z,0
2018-07-20T02:04:29.148Z,0
2018-07-20T02:04:54.704Z,0
2018-07-20T02:05:20.302Z,0
2018-07-20T02:05:45.881Z,0
2018-07-20T02:06:11.441Z,0
2018-07-20T02:06:37.005Z,0
2018-07-20T02:07:02.575Z,0
2018-07-20T02:07:28.137Z,0
2018-07-20T02:07:53.737Z,0
2018-07-20T02:08:19.302Z,0
2018-07-20T02:08:44.879Z,0
2018-07-20T02:09:10.450Z,0
2018-07-20T02:09:36.007Z,0
2018-07-20T02:10:01.585Z,0
2018-07-20T02:10:27.159Z,0
2018-07-20T02:10:52.728Z,0
2018-07-20T02:11:18.302Z,0
2018-07-20T02:11:43.878Z,0
2018-07-20T02:12:09.449Z,0
2018-07-20T02:12:35.026Z,0
2018-07-20T02:13:00.593Z,0
2018-07-20T02:13:26.149Z,0
2018-07-20T02:13:51.723Z,0
2018-07-20T02:14:17.304Z,0
2018-07-20T02:14:42.878Z,0
2018-07-20T02:15:08.453Z,0
2018-07-20T02:15:34.026Z,0
2018-07-20T02:15:59.593Z,0
2018-07-20T02:16:25.151Z,0
2018-07-20T02:16:50.725Z,0
2018-07-20T02:17:16.281Z,0
2018-07-20T02:17:41.859Z,0
2018-07-20T02:18:07.439Z,0
2018-07-20T02:18:33.007Z,0
2018-07-20T02:18:58.583Z,0
2018-07-20T02:19:24.161Z,0
2018-07-20T02:19:49.756Z,0
2018-07-20T02:20:15.334Z,0
2018-07-20T02:20:40.915Z,0
2018-07-20T02:21:06.511Z,0
2018-07-20T02:21:32.117Z,0
2018-07-20T02:21:57.647Z,0
2018-07-20T02:22:23.221Z,0
2018-07-20T02:22:48.793Z,0
2018-07-20T02:23:14.359Z,0
2018-07-20T02:23:39.941Z,0
2018-07-20T02:24:05.513Z,0
2018-07-20T02:24:31.083Z,0
2018-07-20T02:24:56.661Z,0
2018-07-20T02:25:22.223Z,0
2018-07-20T02:25:47.795Z,0
2018-07-20T02:26:13.371Z,0
2018-07-20T02:26:38.940Z,0
2018-07-20T02:27:04.514Z,0
2018-07-20T02:27:30.090Z,0
2018-07-20T02:27:55.665Z,0
2018-07-20T02:28:21.244Z,0
2018-07-20T02:28:46.831Z,0
2018-07-20T02:29:12.383Z,0
2018-07-20T02:29:37.992Z,0
2018-07-20T02:30:03.529Z,0
2018-07-20T02:30:29.102Z,0
2018-07-20T02:30:54.674Z,0
2018-07-20T02:31:20.261Z,0
2018-07-20T02:31:45.840Z,0
2018-07-20T02:32:11.408Z,0
2018-07-20T02:32:36.988Z,0
2018-07-20T02:33:02.561Z,0
2018-07-20T02:33:28.137Z,0
2018-07-20T02:33:53.713Z,0
2018-07-20T02:34:19.292Z,0
2018-07-20T02:34:44.877Z,0
2018-07-20T02:35:10.437Z,0
2018-07-20T02:35:36.011Z,0
2018-07-20T02:36:01.570Z,0
2018-07-20T02:36:27.147Z,0
2018-07-20T02:36:52.729Z,0
2018-07-20T02:37:18.296Z,0
2018-07-20T02:37:43.869Z,0
2018-07-20T02:38:09.437Z,0
2018-07-20T02:38:35.013Z,0
2018-07-20T02:39:00.597Z,0
2018-07-20T02:39:26.167Z,0
2018-07-20T02:39:51.738Z,0
2018-07-20T02:40:17.327Z,0
2018-07-20T02:40:42.920Z,0
2018-07-20T02:41:08.498Z,0
2018-07-20T02:41:34.087Z,0
2018-07-20T02:41:59.731Z,0
2018-07-20T02:42:25.301Z,0
2018-07-20T02:42:50.867Z,0
2018-07-20T02:43:16.451Z,0
2018-07-20T02:43:42.023Z,0
2018-07-20T02:44:07.589Z,0
2018-07-20T02:44:33.158Z,0
2018-07-20T02:44:58.732Z,0
2018-07-20T02:45:24.311Z,0
2018-07-20T02:45:49.889Z,0
2018-07-20T02:46:15.455Z,0
2018-07-20T02:46:41.062Z,0
2018-07-20T02:47:06.641Z,0
2018-07-20T02:47:32.223Z,0
2018-07-20T02:47:57.799Z,0
2018-07-20T02:48:23.375Z,0
2018-07-20T02:48:48.954Z,0
2018-07-20T02:49:14.541Z,0
2018-07-20T02:49:40.124Z,0
2018-07-20T02:50:05.705Z,0
2018-07-20T02:50:31.269Z,0
2018-07-20T02:50:56.838Z,0
2018-07-20T02:51:22.417Z,0
2018-07-20T02:51:47.998Z,0
2018-07-20T02:52:13.572Z,0
2018-07-20T02:52:39.128Z,0
2018-07-20T02:53:04.696Z,0
2018-07-20T02:53:30.282Z,0
2018-07-20T02:53:55.859Z,0
2018-07-20T02:54:21.423Z,0
2018-07-20T02:54:47.008Z,0
2018-07-20T02:55:12.581Z,0
2018-07-20T02:55:38.177Z,0
2018-07-20T02:56:03.736Z,0
2018-07-20T02:56:29.312Z,0
2018-07-20T02:56:54.881Z,0
2018-07-20T02:57:20.448Z,0
2018-07-20T02:57:46.015Z,0
2018-07-20T02:58:11.579Z,0
2018-07-20T02:58:37.151Z,0
2018-07-20T02:59:02.726Z,0
2018-07-20T02:59:28.407Z,0
2018-07-20T02:59:53.925Z,0
2018-07-20T03:00:19.513Z,0
2018-07-20T03:00:45.081Z,0
2018-07-20T03:01:10.657Z,0
2018-07-20T03:01:36.244Z,0
2018-07-20T03:02:01.811Z,0
2018-07-20T03:02:27.381Z,0
2018-07-20T03:02:52.967Z,0
2018-07-20T03:03:18.530Z,0
2018-07-20T03:03:44.107Z,0
2018-07-20T03:04:09.699Z,0
2018-07-20T03:04:35.253Z,0
2018-07-20T03:05:00.821Z,0
2018-07-20T03:05:26.401Z,0
2018-07-20T03:05:51.968Z,0
2018-07-20T03:06:17.541Z,0
2018-07-20T03:06:43.114Z,0
2018-07-20T03:07:08.683Z,0
2018-07-20T03:07:34.269Z,0
2018-07-20T03:07:59.863Z,0
2018-07-20T03:08:25.427Z,0
2018-07-20T03:08:51.056Z,0
2018-07-20T03:09:16.627Z,0
2018-07-20T03:09:42.201Z,0
2018-07-20T03:10:07.778Z,0
2018-07-20T03:10:33.339Z,0
2018-07-20T03:10:58.921Z,0
2018-07-20T03:11:24.497Z,0
2018-07-20T03:11:50.073Z,0
2018-07-20T03:12:15.667Z,0
2018-07-20T03:12:41.279Z,0
2018-07-20T03:13:06.846Z,0
2018-07-20T03:13:32.419Z,0
2018-07-20T03:13:57.995Z,0
2018-07-20T03:14:23.569Z,0
2018-07-20T03:14:49.131Z,0
2018-07-20T03:15:14.686Z,0
2018-07-20T03:15:40.278Z,0
2018-07-20T03:16:05.857Z,0
2018-07-20T03:16:31.423Z,0
2018-07-20T03:16:56.984Z,0
2018-07-20T03:17:22.607Z,0
2018-07-20T03:17:48.194Z,0
2018-07-20T03:18:13.766Z,0
2018-07-20T03:18:39.345Z,0
2018-07-20T03:19:04.917Z,0
2018-07-20T03:19:30.493Z,0
2018-07-20T03:19:56.073Z,0
2018-07-20T03:20:21.630Z,0
2018-07-20T03:20:47.213Z,0
2018-07-20T03:21:12.864Z,0
2018-07-20T03:21:38.394Z,0
2018-07-20T03:22:03.962Z,0
2018-07-20T03:22:29.523Z,0
2018-07-20T03:22:55.095Z,0
2018-07-20T03:23:20.665Z,0
2018-07-20T03:23:46.243Z,0
2018-07-20T03:24:11.818Z,0
2018-07-20T03:24:37.387Z,0
2018-07-20T03:25:02.963Z,0
2018-07-20T03:25:28.571Z,0
2018-07-20T03:25:54.143Z,0
2018-07-20T03:26:19.720Z,0
2018-07-20T03:26:45.298Z,0
2018-07-20T03:27:10.876Z,0
2018-07-20T03:27:36.439Z,0
2018-07-20T03:28:02.009Z,0
2018-07-20T03:28:27.578Z,0
2018-07-20T03:28:53.145Z,0
2018-07-20T03:29:18.713Z,0
2018-07-20T03:29:44.287Z,0
2018-07-20T03:30:09.842Z,0
2018-07-20T03:30:35.412Z,0
2018-07-20T03:31:00.995Z,0
2018-07-20T03:31:26.587Z,0
2018-07-20T03:31:52.153Z,0
2018-07-20T03:32:17.713Z,0
2018-07-20T03:32:43.321Z,0
2018-07-20T03:33:08.845Z,0
2018-07-20T03:33:34.415Z,0
2018-07-20T03:33:59.996Z,0
2018-07-20T03:34:25.579Z,0
2018-07-20T03:34:51.154Z,0
2018-07-20T03:35:16.778Z,0
2018-07-20T03:35:42.345Z,0
2018-07-20T03:36:07.918Z,0
2018-07-20T03:36:33.477Z,0
2018-07-20T03:36:59.026Z,0
2018-07-20T03:37:24.601Z,0
2018-07-20T03:37:50.183Z,0
2018-07-20T03:38:15.751Z,0
2018-07-20T03:38:41.335Z,0
2018-07-20T03:39:06.897Z,0
2018-07-20T03:39:32.459Z,0
2018-07-20T03:39:58.031Z,0
2018-07-20T03:40:23.596Z,0
2018-07-20T03:40:49.177Z,0
2018-07-20T03:41:14.760Z,0
2018-07-20T03:41:40.339Z,0
2018-07-20T03:42:05.910Z,0
2018-07-20T03:42:31.492Z,0
2018-07-20T03:42:57.069Z,0
2018-07-20T03:43:22.703Z,0
2018-07-20T03:43:48.284Z,0
2018-07-20T03:44:13.878Z,0
2018-07-20T03:44:39.441Z,0
2018-07-20T03:45:05.003Z,0
2018-07-20T03:45:30.589Z,0
2018-07-20T03:45:56.163Z,0
2018-07-20T03:46:21.738Z,0
2018-07-20T03:46:47.321Z,0
2018-07-20T03:47:12.881Z,0
2018-07-20T03:47:38.469Z,0
2018-07-20T03:48:04.059Z,0
2018-07-20T03:48:29.645Z,0
2018-07-20T03:48:55.260Z,0
2018-07-20T03:49:20.783Z,0
2018-07-20T03:49:46.361Z,0
2018-07-20T03:50:11.939Z,0
2018-07-20T03:50:37.505Z,0
2018-07-20T03:51:03.081Z,0
2018-07-20T03:51:28.659Z,0
2018-07-20T03:51:54.237Z,0
2018-07-20T03:52:19.803Z,0
2018-07-20T03:52:45.380Z,0
2018-07-20T03:53:10.984Z,0
2018-07-20T03:53:36.571Z,0
2018-07-20T03:54:02.149Z,0
2018-07-20T03:54:27.735Z,0
2018-07-20T03:54:53.305Z,0
2018-07-20T03:55:18.862Z,4
2018-07-20T03:55:44.441Z,4
2018-07-20T03:56:10.082Z,4
2018-07-20T03:56:35.607Z,4
2018-07-20T03:57:01.175Z,4
2018-07-20T03:57:26.754Z,4
2018-07-20T03:57:52.327Z,4
2018-07-20T03:58:17.897Z,4
2018-07-20T03:58:43.461Z,4
2018-07-20T03:59:09.061Z,4
2018-07-20T03:59:34.627Z,4
2018-07-20T04:00:00.190Z,4
2018-07-20T04:00:25.771Z,4
2018-07-20T04:00:51.327Z,4
2018-07-20T04:01:16.893Z,4
2018-07-20T04:01:42.491Z,4
2018-07-20T04:02:08.064Z,4
2018-07-20T04:02:33.685Z,4
2018-07-20T04:02:59.208Z,4
2018-07-20T04:03:24.785Z,4
2018-07-20T04:03:50.353Z,0
2018-07-20T04:04:15.924Z,0
2018-07-20T04:04:41.501Z,0
2018-07-20T04:05:07.077Z,0
2018-07-20T04:05:32.654Z,0
2018-07-20T04:05:58.239Z,0
2018-07-20T04:06:23.819Z,0
2018-07-20T04:06:49.376Z,0
2018-07-20T04:07:14.951Z,0
2018-07-20T04:07:40.523Z,0
2018-07-20T04:08:06.088Z,0
2018-07-20T04:08:31.663Z,0
2018-07-20T04:08:57.231Z,0
2018-07-20T04:09:22.801Z,0
2018-07-20T04:09:48.360Z,0
2018-07-20T04:10:13.966Z,0
2018-07-20T04:10:39.518Z,0
2018-07-20T04:11:05.093Z,0
2018-07-20T04:11:30.661Z,0
2018-07-20T04:11:56.237Z,0
2018-07-20T04:12:21.822Z,0
2018-07-20T04:12:47.393Z,0
2018-07-20T04:13:12.952Z,0
2018-07-20T04:13:38.538Z,0
2018-07-20T04:14:04.105Z,0
2018-07-20T04:14:29.663Z,0
2018-07-20T04:14:55.249Z,0
2018-07-20T04:15:20.835Z,0
2018-07-20T04:15:46.394Z,0
2018-07-20T04:16:11.955Z,0
2018-07-20T04:16:37.517Z,4
2018-07-20T04:17:03.084Z,4
2018-07-20T04:17:28.633Z,4
2018-07-20T04:17:54.223Z,4
2018-07-20T04:18:19.797Z,4
2018-07-20T04:18:45.379Z,4
2018-07-20T04:19:10.956Z,4
2018-07-20T04:19:36.532Z,0
2018-07-20T04:20:02.097Z,0
2018-07-20T04:20:27.661Z,4
2018-07-20T04:20:53.214Z,4
2018-07-20T04:21:18.800Z,4
2018-07-20T04:21:44.363Z,4
2018-07-20T04:22:09.944Z,4
2018-07-20T04:22:35.511Z,4
2018-07-20T04:23:01.147Z,4
2018-07-20T04:23:26.746Z,4
2018-07-20T04:23:52.314Z,4
2018-07-20T04:24:17.915Z,4
2018-07-20T04:24:43.478Z,4
2018-07-20T04:25:09.055Z,4
2018-07-20T04:25:34.648Z,4
2018-07-20T04:26:00.228Z,4
2018-07-20T04:26:25.801Z,4
2018-07-20T04:26:51.411Z,4
2018-07-20T04:27:16.934Z,8
2018-07-20T04:27:42.496Z,8
2018-07-20T04:28:08.081Z,4
2018-07-20T04:28:33.646Z,4
2018-07-20T04:28:59.216Z,4
2018-07-20T04:29:24.786Z,4
2018-07-20T04:29:50.355Z,4
2018-07-20T04:30:15.949Z,4
2018-07-20T04:30:41.520Z,4
2018-07-20T04:31:07.098Z,8
2018-07-20T04:31:32.784Z,8
2018-07-20T04:31:58.353Z,8
2018-07-20T04:32:23.948Z,8
2018-07-20T04:32:49.518Z,8
2018-07-20T04:33:15.100Z,8
2018-07-20T04:33:40.695Z,8
2018-07-20T04:34:06.283Z,8
2018-07-20T04:34:31.849Z,8
2018-07-20T04:34:57.427Z,8
2018-07-20T04:35:22.994Z,8
2018-07-20T04:35:48.560Z,8
2018-07-20T04:36:14.164Z,8
2018-07-20T04:36:39.684Z,8
2018-07-20T04:37:05.279Z,8
2018-07-20T04:37:30.845Z,8
2018-07-20T04:37:56.432Z,8
2018-07-20T04:38:22.025Z,8
2018-07-20T04:38:47.589Z,8
2018-07-20T04:39:13.176Z,8
2018-07-20T04:39:38.754Z,8
2018-07-20T04:40:04.321Z,8
2018-07-20T04:40:29.882Z,8
2018-07-20T04:40:55.476Z,8
2018-07-20T04:41:21.038Z,8
2018-07-20T04:41:46.593Z,8
2018-07-20T04:42:12.168Z,8
2018-07-20T04:42:37.729Z,8
2018-07-20T04:43:03.302Z,8
2018-07-20T04:43:28.877Z,8
2018-07-20T04:43:54.517Z,4
2018-07-20T04:44:20.089Z,16
2018-07-20T04:44:45.654Z,16
2018-07-20T04:45:11.228Z,16
2018-07-20T04:45:36.816Z,16
2018-07-20T04:46:02.406Z,16
2018-07-20T04:46:27.977Z,16
2018-07-20T04:46:53.546Z,16
2018-07-20T04:47:19.143Z,16
2018-07-20T04:47:44.714Z,16
2018-07-20T04:48:10.289Z,16
2018-07-20T04:48:35.867Z,16
2018-07-20T04:49:01.433Z,16
2018-07-20T04:49:27.012Z,16
2018-07-20T04:49:52.655Z,20
2018-07-20T04:50:18.165Z,20
2018-07-20T04:50:43.761Z,20
2018-07-20T04:51:09.328Z,16
2018-07-20T04:51:34.924Z,16
2018-07-20T04:52:00.513Z,16
2018-07-20T04:52:26.072Z,16
2018-07-20T04:52:51.644Z,20
2018-07-20T04:53:17.210Z,20
2018-07-20T04:53:42.776Z,20
2018-07-20T04:54:08.350Z,20
2018-07-20T04:54:33.942Z,20
2018-07-20T04:54:59.519Z,20
2018-07-20T04:55:25.088Z,24
2018-07-20T04:55:50.651Z,20
2018-07-20T04:56:16.228Z,24
2018-07-20T04:56:41.801Z,24
2018-07-20T04:57:07.372Z,24
2018-07-20T04:57:32.944Z,24
2018-07-20T04:57:58.522Z,24
2018-07-20T04:58:24.100Z,24
2018-07-20T04:58:49.702Z,24
2018-07-20T04:59:15.256Z,24
2018-07-20T04:59:40.823Z,20
2018-07-20T05:00:06.391Z,20
2018-07-20T05:00:31.970Z,24
2018-07-20T05:00:57.540Z,24
2018-07-20T05:01:23.125Z,24
2018-07-20T05:01:48.698Z,24
2018-07-20T05:02:14.269Z,24
2018-07-20T05:02:39.862Z,24
2018-07-20T05:03:05.452Z,24
2018-07-20T05:03:31.039Z,24
2018-07-20T05:03:56.617Z,24
2018-07-20T05:04:22.179Z,24
2018-07-20T05:04:47.740Z,24
2018-07-20T05:05:13.335Z,24
2018-07-20T05:05:38.914Z,24
2018-07-20T05:06:04.483Z,24
2018-07-20T05:06:30.057Z,24
2018-07-20T05:06:55.634Z,24
2018-07-20T05:07:21.223Z,24
2018-07-20T05:07:46.769Z,24
2018-07-20T05:08:12.366Z,20
2018-07-20T05:08:37.945Z,24
2018-07-20T05:09:03.541Z,24
2018-07-20T05:09:29.099Z,24
2018-07-20T05:09:54.672Z,24
2018-07-20T05:10:20.275Z,24
2018-07-20T05:10:45.821Z,20
2018-07-20T05:11:11.431Z,24
2018-07-20T05:11:37.016Z,24
2018-07-20T05:12:02.577Z,24
2018-07-20T05:12:28.145Z,24
2018-07-20T05:12:53.732Z,24
2018-07-20T05:13:19.316Z,24
2018-07-20T05:13:44.908Z,24
2018-07-20T05:14:10.467Z,28
2018-07-20T05:14:36.058Z,28
2018-07-20T05:15:01.659Z,24
2018-07-20T05:15:27.249Z,28
2018-07-20T05:15:52.820Z,28
2018-07-20T05:16:18.392Z,28
2018-07-20T05:16:43.962Z,28
2018-07-20T05:17:09.548Z,28
2018-07-20T05:17:35.131Z,32
2018-07-20T05:18:00.708Z,28
2018-07-20T05:18:26.281Z,32
2018-07-20T05:18:51.864Z,32
2018-07-20T05:19:17.440Z,32
2018-07-20T05:19:43.027Z,32
2018-07-20T05:20:08.614Z,32
2018-07-20T05:20:34.186Z,32
2018-07-20T05:20:59.753Z,32
2018-07-20T05:21:25.317Z,32
2018-07-20T05:21:50.902Z,28
2018-07-20T05:22:16.474Z,28
2018-07-20T05:22:42.043Z,28
2018-07-20T05:23:07.606Z,32
2018-07-20T05:23:33.160Z,32
2018-07-20T05:23:58.783Z,32
2018-07-20T05:24:24.312Z,32
2018-07-20T05:24:49.896Z,28
2018-07-20T05:25:15.456Z,28
2018-07-20T05:25:41.027Z,28
2018-07-20T05:26:06.609Z,28
2018-07-20T05:26:32.173Z,28
2018-07-20T05:26:57.735Z,32
2018-07-20T05:27:23.330Z,32
2018-07-20T05:27:48.914Z,32
2018-07-20T05:28:14.531Z,32
2018-07-20T05:28:40.112Z,32
2018-07-20T05:29:05.684Z,32
2018-07-20T05:29:31.251Z,32
2018-07-20T05:29:56.842Z,32
2018-07-20T05:30:22.420Z,32
2018-07-20T05:30:47.996Z,32
2018-07-20T05:31:13.570Z,32
2018-07-20T05:31:39.139Z,32
2018-07-20T05:32:04.710Z,32
2018-07-20T05:32:30.375Z,32
2018-07-20T05:32:55.896Z,36
2018-07-20T05:33:21.469Z,32
2018-07-20T05:33:47.042Z,32
2018-07-20T05:34:12.617Z,32
2018-07-20T05:34:38.181Z,32
2018-07-20T05:35:03.778Z,32
2018-07-20T05:35:29.333Z,32
2018-07-20T05:35:54.916Z,32
2018-07-20T05:36:20.496Z,36
2018-07-20T05:36:46.059Z,32
2018-07-20T05:37:11.638Z,36
2018-07-20T05:37:37.196Z,36
2018-07-20T05:38:02.792Z,36
2018-07-20T05:38:28.374Z,36
2018-07-20T05:38:53.940Z,36
2018-07-20T05:39:19.513Z,36
2018-07-20T05:39:45.110Z,36
2018-07-20T05:40:10.693Z,32
2018-07-20T05:40:36.281Z,32
2018-07-20T05:41:01.846Z,32
2018-07-20T05:41:27.415Z,32
2018-07-20T05:41:53.002Z,32
2018-07-20T05:42:18.567Z,32
2018-07-20T05:42:44.132Z,36
2018-07-20T05:43:09.725Z,36
2018-07-20T05:43:35.298Z,36
2018-07-20T05:44:00.887Z,36
2018-07-20T05:44:26.458Z,36
2018-07-20T05:44:52.045Z,40
2018-07-20T05:45:17.607Z,40
2018-07-20T05:45:43.222Z,40
2018-07-20T05:46:08.797Z,40
2018-07-20T05:46:34.402Z,40
2018-07-20T05:46:59.996Z,40
2018-07-20T05:47:25.581Z,40
2018-07-20T05:47:51.158Z,40
2018-07-20T05:48:16.726Z,40
2018-07-20T05:48:42.330Z,44
2018-07-20T05:49:07.908Z,44
2018-07-20T05:49:33.564Z,40
2018-07-20T05:49:59.092Z,40
2018-07-20T05:50:24.684Z,44
2018-07-20T05:50:50.297Z,44
2018-07-20T05:51:15.860Z,40
2018-07-20T05:51:41.442Z,40
2018-07-20T05:52:07.029Z,40
2018-07-20T05:52:32.587Z,40
2018-07-20T05:52:58.150Z,40
2018-07-20T05:53:23.742Z,40
2018-07-20T05:53:49.285Z,40
2018-07-20T05:54:14.857Z,40
2018-07-20T05:54:40.433Z,44
2018-07-20T05:55:06.008Z,40
2018-07-20T05:55:31.601Z,44
2018-07-20T05:55:57.152Z,44
2018-07-20T05:56:22.724Z,44
2018-07-20T05:56:48.301Z,44
2018-07-20T05:57:13.882Z,44
2018-07-20T05:57:39.472Z,44
2018-07-20T05:58:05.039Z,44
2018-07-20T05:58:30.606Z,48
2018-07-20T05:58:56.198Z,44
2018-07-20T05:59:21.808Z,48
2018-07-20T05:59:47.376Z,48
2018-07-20T06:00:12.938Z,48
2018-07-20T06:00:38.497Z,44
2018-07-20T06:01:04.092Z,48
2018-07-20T06:01:29.658Z,48
2018-07-20T06:01:55.237Z,44
2018-07-20T06:02:20.816Z,44
2018-07-20T06:02:46.388Z,48
2018-07-20T06:03:11.990Z,44
2018-07-20T06:03:37.616Z,44
2018-07-20T06:04:03.196Z,44
2018-07-20T06:04:28.709Z,44
2018-07-20T06:04:54.297Z,44
2018-07-20T06:05:19.880Z,44
2018-07-20T06:05:45.446Z,44
2018-07-20T06:06:11.016Z,44
2018-07-20T06:06:36.607Z,44
2018-07-20T06:07:02.185Z,40
2018-07-20T06:07:27.779Z,44
2018-07-20T06:07:53.354Z,44
2018-07-20T06:08:18.940Z,44
2018-07-20T06:08:44.498Z,44
2018-07-20T06:09:10.068Z,48
2018-07-20T06:09:35.634Z,44
2018-07-20T06:10:01.196Z,52
2018-07-20T06:10:26.766Z,48
2018-07-20T06:10:52.334Z,48
2018-07-20T06:11:17.903Z,48
2018-07-20T06:11:43.490Z,48
2018-07-20T06:12:09.074Z,48
2018-07-20T06:12:34.648Z,52
2018-07-20T06:13:00.222Z,48
2018-07-20T06:13:25.800Z,52
2018-07-20T06:13:51.366Z,52
2018-07-20T06:14:17.028Z,52
2018-07-20T06:14:42.508Z,56